Willis, Virginia
Current Conditions -  °F | °C
As of 2:15 AM on Friday 31 Oct 2014 (Local Time) from KHLX Reporting Station
Clear Clear  
Wind Chill: 39°   Ceiling: Unl
Heat Index: 39°   Visibility: 10mi
Dew Point: 32°   Wind: 3mph
Humidity: 77%   Direction: 40°NE
Pressure: 30"   Gusts: NA
Location:  36.85°N, 80.48°W
Report Text: KHLX 310615Z AUTO 04003KT 10SM CLR 04/00 A3000 RMK AO2 T00390002
Loading
Personal Weather Stations






























Interactive Weather Map
Tropical Storm Tracking
New forecast layout! Learn more

10-Day Weather Forecast

Advertisements
Track Severe Weather on mobile